• Join FlightAware (Why Join?)
  • Login
  • US Flag 
11:19AM EDT


 

Airport Tracker/Info


-or-


 

Live Flight TrackerFlight Track Log ✈ SWA378 ✈ 11-Oct-2013 ✈ KHOU - KMSY

Flight Track Log - Related Links

Times and Time Zones

All times are in EDT time to prevent confusion due to time zone crossing. See the SWA378 flight status page for this flight to view local times or setup timezone preferences in your user account.

Time Position Orientation Groundspeed Altitude Reporting Facility
EDT Latitude Longitude Course Direction KTS MPH feet Rate Location/Type
08:15AM 29.6353 -95.2892 179° South 157 181 600  Level Houston Center
08:15AM 29.6131 -95.2889 179° South 143 165 1,700 1,800 Climbing Houston Center
08:16AM 29.5983 -95.2744 140° Southeast 193 222 2,300 2,220 Climbing Houston Center
08:17AM 29.5686 -95.2472 141° Southeast 211 243 4,000 2,520 Climbing Houston Center
08:17AM 29.5558 -95.2242 122° Southeast 249 287 4,900 3,420 Climbing Houston Center
08:18AM 29.5514 -95.1503 94° East 276 318 7,500 3,180 Climbing Houston Center
08:19AM 29.5483 -95.0561 92° East 299 344 10,800 3,000 Climbing Houston Center
08:20AM 29.5728 -94.9517 75° East 346 398 13,700 2,820 Climbing Houston Center
08:21AM 29.6000 -94.8403 74° East 362 417 16,600 2,700 Climbing Houston Center
08:22AM 29.6292 -94.7239 74° East 377 434 19,200 2,280 Climbing Houston Center
08:23AM 29.6586 -94.6003 75° East 393 452 21,300 2,040 Climbing Houston Center
08:24AM 29.6906 -94.4692 74° East 416 479 23,400 2,340 Climbing Houston Center
08:25AM 29.7172 -94.3050 79° East 436 502 26,100 2,100 Climbing Houston Center
08:26AM 29.7014 -94.1561 97° East 448 516 27,800 1,620 Climbing Houston Center
08:27AM 29.6856 -94.0078 97° East 466 536 29,400 1,740 Climbing Houston Center
08:28AM 29.7039 -93.8578 82° East 480 552 31,400 1,740 Climbing Houston Center
08:29AM 29.7269 -93.7081 80° East 479 551 33,000 780 Climbing Houston Center
08:30AM 29.7492 -93.5581 80° East 480 552 33,000  Level Houston Center
08:31AM 29.7717 -93.4103 80° East 474 545 33,000  Level Houston Center
08:32AM 29.7933 -93.2631 80° East 471 542 33,000  Level Houston Center
08:33AM 29.8194 -93.0858 80° East 472 543 33,000  Level Houston Center
08:34AM 29.8417 -92.9375 80° East 471 542 33,000  Level Houston Center
08:35AM 29.8633 -92.7897 80° East 473 544 33,000  Level Houston Center
08:36AM 29.8853 -92.6403 80° East 474 545 33,000 -840 Level Houston Center
08:37AM 29.9061 -92.4919 81° East 472 543 31,400 -1,860 Descending Houston Center
08:38AM 29.9275 -92.3436 81° East 472 543 29,300 -2,100 Descending Houston Center
08:39AM 29.9472 -92.1997 81° East 462 532 27,200 -2,160 Descending Houston Center
08:40AM 29.9700 -92.0331 81° East 447 514 24,900 -2,040 Descending Houston Center
08:41AM 29.9889 -91.9011 81° East 429 494 23,100 -1,740 Descending Houston Center
08:42AM 30.0056 -91.7750 81° East 410 472 21,400 -1,740 Descending Houston Center
08:43AM 30.0236 -91.6486 81° East 386 444 19,600 -1,680 Descending Houston Center
08:44AM 30.0408 -91.5336 80° East 368 423 18,000 -1,620 Descending Houston Center
08:45AM 30.0553 -91.4203 82° East 358 412 16,400 -1,620 Descending Houston Center
08:46AM 30.0697 -91.3097 81° East 352 405 14,700 -1,800 Descending Houston Center
08:46AM 30.0742 -91.2733 82° East 346 398 14,200 -1,620 Descending Houston Center
08:47AM 30.0844 -91.2031 80° East 341 392 13,100 -1,620 Descending Houston Center
08:47AM 30.0883 -91.1647 83° East 337 388 12,600 -1,560 Descending Houston Center
08:48AM 30.1003 -91.0983 78° East 334 384 11,500 -1,680 Descending Houston Center
08:48AM 30.1028 -91.0706 84° East 326 375 11,100 -1,080 Descending Houston Center
08:49AM 30.1147 -90.9797 81° East 316 364 10,400 -840 Descending Houston Center
08:49AM 30.1150 -90.9717 88° East 306 352 10,300 -1,380 Descending Houston Center
08:50AM 30.1267 -90.8822 81° East 307 353 9,000 -1,320 Descending Houston Center
08:50AM 30.1272 -90.8753 85° East 302 348 9,000 -1,200 Level Houston Center
08:51AM 30.1325 -90.7914 86° East 297 342 7,800 -1,380 Descending Houston Center
08:51AM 30.1269 -90.7861 141° Southeast 279 321 7,600 -2,280 Descending Houston Center
08:52AM 30.1039 -90.7031 108° East 266 306 5,500 -1,620 Descending Houston Center
08:53AM 30.0828 -90.6219 107° East 261 300 4,400 -660 Descending Houston Center
08:54AM 30.0675 -90.5633 107° East 245 282 4,200 -480 Descending Houston Center
08:55AM 30.0506 -90.5036 108° East 213 245 3,500 -840 Descending Houston Center
08:56AM 30.0456 -90.4889 111° Southeast 189 217 3,300 -1,140 Descending Houston Center
08:56AM 30.0336 -90.4342 104° East 196 226 2,400 -1,080 Descending Houston Center
08:56AM 30.0331 -90.4314 103° East 200 230 2,300 -900 Descending Houston Center
08:57AM 30.0172 -90.3747 108° East 193 222 1,500 -900 Descending Houston Center
08:58AM 30.0197 -90.3731 30° Northeast 195 224 1,400 -720 Descending Houston Center
08:58AM 30.0075 -90.3294 108° East 143 165 800 -720 Descending Houston Center
08:59AM 30.0094 -90.3281 32° Northeast 166 191 700 -600 Descending Houston Center
08:59AM 29.9981 -90.2889 109° East 133 153 200 -120 Descending Houston Center
09:00AM 30.0014 -90.2900 344° North 158 182 600 3,960 Climbing Houston Center